sensor_id;sensor_type;location;lat;lon;timestamp;pressure;altitude;pressure_sealevel;temperature;humidity
69570;BME280;56781;42.292;23.146;2023-01-31T00:01:37;95155.00;;;-1.99;96.79
69570;BME280;56781;42.292;23.146;2023-01-31T00:04:07;95178.34;;;-1.62;95.37
69570;BME280;56781;42.292;23.146;2023-01-31T00:06:40;95142.06;;;-1.77;95.21
69570;BME280;56781;42.292;23.146;2023-01-31T00:09:09;95110.47;;;-1.70;94.47
69570;BME280;56781;42.292;23.146;2023-01-31T00:11:37;95131.47;;;-1.70;95.55
69570;BME280;56781;42.292;23.146;2023-01-31T00:14:06;95117.25;;;-1.98;97.05
69570;BME280;56781;42.292;23.146;2023-01-31T00:16:33;95146.72;;;-1.67;98.18
69570;BME280;56781;42.292;23.146;2023-01-31T00:19:02;95124.50;;;-1.76;97.47
69570;BME280;56781;42.292;23.146;2023-01-31T00:21:30;95169.38;;;-1.38;94.89
69570;BME280;56781;42.292;23.146;2023-01-31T00:23:57;95128.84;;;-1.82;94.53
69570;BME280;56781;42.292;23.146;2023-01-31T00:26:30;95118.47;;;-1.77;94.62
69570;BME280;56781;42.292;23.146;2023-01-31T00:29:00;95128.84;;;-1.70;94.30
69570;BME280;56781;42.292;23.146;2023-01-31T00:31:29;95126.06;;;-1.64;94.04
69570;BME280;56781;42.292;23.146;2023-01-31T00:33:57;95119.56;;;-1.61;93.28
69570;BME280;56781;42.292;23.146;2023-01-31T00:36:28;95116.25;;;-1.57;93.04
69570;BME280;56781;42.292;23.146;2023-01-31T00:38:58;95115.56;;;-1.52;91.67
69570;BME280;56781;42.292;23.146;2023-01-31T00:41:26;95118.97;;;-1.51;91.36
69570;BME280;56781;42.292;23.146;2023-01-31T00:43:53;95154.72;;;-1.34;91.06
69570;BME280;56781;42.292;23.146;2023-01-31T00:46:21;95142.63;;;-1.35;90.06
69570;BME280;56781;42.292;23.146;2023-01-31T00:48:49;95134.19;;;-1.37;90.99
69570;BME280;56781;42.292;23.146;2023-01-31T00:51:17;95124.97;;;-1.39;91.71
69570;BME280;56781;42.292;23.146;2023-01-31T00:53:45;95118.81;;;-1.45;92.08
69570;BME280;56781;42.292;23.146;2023-01-31T00:56:18;95156.66;;;-1.29;91.86
69570;BME280;56781;42.292;23.146;2023-01-31T00:58:45;95120.22;;;-1.54;91.15
69570;BME280;56781;42.292;23.146;2023-01-31T01:01:20;95158.69;;;-1.19;91.28
69570;BME280;56781;42.292;23.146;2023-01-31T01:03:48;95099.72;;;-1.57;91.17
69570;BME280;56781;42.292;23.146;2023-01-31T01:06:15;95120.34;;;-1.49;91.54
69570;BME280;56781;42.292;23.146;2023-01-31T01:08:43;95135.72;;;-1.41;90.77
69570;BME280;56781;42.292;23.146;2023-01-31T01:11:14;95113.09;;;-1.42;90.73
69570;BME280;56781;42.292;23.146;2023-01-31T01:13:42;95149.88;;;-1.13;90.86
69570;BME280;56781;42.292;23.146;2023-01-31T01:16:22;95102.50;;;-1.47;91.03
69570;BME280;56781;42.292;23.146;2023-01-31T01:18:50;95144.88;;;-1.26;90.45
69570;BME280;56781;42.292;23.146;2023-01-31T01:21:20;95140.63;;;-1.16;90.31
69570;BME280;56781;42.292;23.146;2023-01-31T01:23:49;95145.09;;;-1.16;89.55
69570;BME280;56781;42.292;23.146;2023-01-31T01:26:24;95086.31;;;-1.44;89.57
69570;BME280;56781;42.292;23.146;2023-01-31T01:28:52;95098.44;;;-1.09;88.57
69570;BME280;56781;42.292;23.146;2023-01-31T01:31:20;95136.16;;;-0.86;88.38
69570;BME280;56781;42.292;23.146;2023-01-31T01:33:48;95118.19;;;-1.06;88.38
69570;BME280;56781;42.292;23.146;2023-01-31T01:36:17;95120.13;;;-1.02;88.21
69570;BME280;56781;42.292;23.146;2023-01-31T01:38:48;95146.09;;;-0.88;88.29
69570;BME280;56781;42.292;23.146;2023-01-31T01:41:16;95137.16;;;-0.87;88.44
69570;BME280;56781;42.292;23.146;2023-01-31T01:43:56;95136.66;;;-1.01;87.85
69570;BME280;56781;42.292;23.146;2023-01-31T01:46:38;95157.16;;;-0.86;88.24
69570;BME280;56781;42.292;23.146;2023-01-31T01:49:27;95168.88;;;-0.77;87.97
69570;BME280;56781;42.292;23.146;2023-01-31T01:51:59;95157.78;;;-0.79;87.98
69570;BME280;56781;42.292;23.146;2023-01-31T01:54:44;95147.03;;;-0.95;86.70
69570;BME280;56781;42.292;23.146;2023-01-31T01:57:16;95185.69;;;-0.78;87.42
69570;BME280;56781;42.292;23.146;2023-01-31T01:59:51;95166.31;;;-0.89;88.11
69570;BME280;56781;42.292;23.146;2023-01-31T02:02:20;95148.63;;;-0.94;87.41
69570;BME280;56781;42.292;23.146;2023-01-31T02:04:48;95170.00;;;-0.73;86.48
69570;BME280;56781;42.292;23.146;2023-01-31T02:07:17;95148.72;;;-0.88;87.12
69570;BME280;56781;42.292;23.146;2023-01-31T02:12:40;95156.69;;;-0.83;86.91
69570;BME280;56781;42.292;23.146;2023-01-31T02:15:07;95160.09;;;-1.00;87.55
69570;BME280;56781;42.292;23.146;2023-01-31T02:17:35;95163.59;;;-0.94;87.89
69570;BME280;56781;42.292;23.146;2023-01-31T02:20:32;95167.72;;;-0.98;87.21
69570;BME280;56781;42.292;23.146;2023-01-31T02:38:07;95184.47;;;-1.16;88.92
69570;BME280;56781;42.292;23.146;2023-01-31T02:40:51;95188.50;;;-1.25;89.61
69570;BME280;56781;42.292;23.146;2023-01-31T02:46:25;95231.84;;;-1.11;89.07
69570;BME280;56781;42.292;23.146;2023-01-31T02:49:06;95189.69;;;-1.45;89.18
69570;BME280;56781;42.292;23.146;2023-01-31T02:51:43;95212.00;;;-1.30;89.97
69570;BME280;56781;42.292;23.146;2023-01-31T02:54:32;95236.44;;;-1.18;90.43
69570;BME280;56781;42.292;23.146;2023-01-31T02:57:20;95206.88;;;-1.25;89.46
69570;BME280;56781;42.292;23.146;2023-01-31T02:59:48;95227.78;;;-1.30;90.46
69570;BME280;56781;42.292;23.146;2023-01-31T03:02:15;95213.88;;;-1.43;91.40
69570;BME280;56781;42.292;23.146;2023-01-31T03:04:42;95237.47;;;-1.19;91.33
69570;BME280;56781;42.292;23.146;2023-01-31T03:07:19;95208.84;;;-1.44;91.41
69570;BME280;56781;42.292;23.146;2023-01-31T03:12:49;95202.31;;;-1.70;91.61
69570;BME280;56781;42.292;23.146;2023-01-31T03:18:27;95188.59;;;-1.72;92.13
69570;BME280;56781;42.292;23.146;2023-01-31T03:21:06;95198.31;;;-1.73;92.33
69570;BME280;56781;42.292;23.146;2023-01-31T03:23:35;95223.25;;;-1.47;91.66
69570;BME280;56781;42.292;23.146;2023-01-31T03:26:05;95223.53;;;-1.60;92.15
69570;BME280;56781;42.292;23.146;2023-01-31T03:28:34;95203.53;;;-1.61;91.43
69570;BME280;56781;42.292;23.146;2023-01-31T03:34:00;95244.00;;;-1.34;91.09
69570;BME280;56781;42.292;23.146;2023-01-31T03:39:36;95239.09;;;-1.42;90.77
69570;BME280;56781;42.292;23.146;2023-01-31T03:42:11;95255.75;;;-1.36;90.00
69570;BME280;56781;42.292;23.146;2023-01-31T03:45:08;95262.47;;;-1.17;89.39
69570;BME280;56781;42.292;23.146;2023-01-31T03:47:40;95287.66;;;-1.04;89.61
69570;BME280;56781;42.292;23.146;2023-01-31T03:50:24;95264.41;;;-1.24;89.60
69570;BME280;56781;42.292;23.146;2023-01-31T03:53:01;95252.13;;;-1.35;89.57
69570;BME280;56781;42.292;23.146;2023-01-31T03:55:36;95269.91;;;-1.37;90.64
69570;BME280;56781;42.292;23.146;2023-01-31T03:58:07;95271.16;;;-1.40;91.09
69570;BME280;56781;42.292;23.146;2023-01-31T04:00:37;95272.09;;;-1.46;90.90
69570;BME280;56781;42.292;23.146;2023-01-31T04:03:23;95276.53;;;-1.35;90.38
69570;BME280;56781;42.292;23.146;2023-01-31T04:05:53;95262.19;;;-1.44;90.87
69570;BME280;56781;42.292;23.146;2023-01-31T04:08:20;95278.47;;;-1.42;90.81
69570;BME280;56781;42.292;23.146;2023-01-31T04:10:48;95301.09;;;-1.41;91.58
69570;BME280;56781;42.292;23.146;2023-01-31T04:13:16;95339.06;;;-1.20;92.06
69570;BME280;56781;42.292;23.146;2023-01-31T04:15:43;95307.72;;;-1.38;91.68
69570;BME280;56781;42.292;23.146;2023-01-31T04:18:10;95314.34;;;-1.36;91.79
69570;BME280;56781;42.292;23.146;2023-01-31T04:20:37;95324.47;;;-1.27;91.50
69570;BME280;56781;42.292;23.146;2023-01-31T04:23:04;95340.22;;;-1.16;91.50
69570;BME280;56781;42.292;23.146;2023-01-31T04:25:32;95300.22;;;-1.06;87.96
69570;BME280;56781;42.292;23.146;2023-01-31T04:27:59;95302.47;;;-0.86;85.22
69570;BME280;56781;42.292;23.146;2023-01-31T04:30:26;95302.94;;;-0.60;81.79
69570;BME280;56781;42.292;23.146;2023-01-31T04:32:54;95307.53;;;-0.39;79.42
69570;BME280;56781;42.292;23.146;2023-01-31T04:35:21;95314.28;;;-0.72;85.72
69570;BME280;56781;42.292;23.146;2023-01-31T04:37:48;95334.47;;;-0.60;85.50
69570;BME280;56781;42.292;23.146;2023-01-31T04:40:15;95352.94;;;-0.43;83.53
69570;BME280;56781;42.292;23.146;2023-01-31T04:42:43;95331.69;;;0.04;75.54
69570;BME280;56781;42.292;23.146;2023-01-31T04:45:10;95338.97;;;0.30;74.72
69570;BME280;56781;42.292;23.146;2023-01-31T04:47:38;95333.63;;;0.25;74.59
69570;BME280;56781;42.292;23.146;2023-01-31T04:50:05;95331.84;;;0.48;73.88
69570;BME280;56781;42.292;23.146;2023-01-31T04:52:33;95319.88;;;0.23;74.71
69570;BME280;56781;42.292;23.146;2023-01-31T04:55:00;95335.84;;;0.33;74.87
69570;BME280;56781;42.292;23.146;2023-01-31T04:57:27;95355.38;;;0.54;74.07
69570;BME280;56781;42.292;23.146;2023-01-31T04:59:54;95328.03;;;0.38;74.33
69570;BME280;56781;42.292;23.146;2023-01-31T05:02:21;95330.19;;;0.41;74.47
69570;BME280;56781;42.292;23.146;2023-01-31T05:04:49;95338.78;;;0.37;75.38
69570;BME280;56781;42.292;23.146;2023-01-31T05:07:16;95349.41;;;0.42;76.21
69570;BME280;56781;42.292;23.146;2023-01-31T05:09:43;95374.47;;;0.44;77.53
69570;BME280;56781;42.292;23.146;2023-01-31T05:12:10;95393.94;;;0.43;76.88
69570;BME280;56781;42.292;23.146;2023-01-31T05:14:37;95375.72;;;0.25;77.44
69570;BME280;56781;42.292;23.146;2023-01-31T05:17:04;95367.97;;;0.18;77.35
69570;BME280;56781;42.292;23.146;2023-01-31T05:19:32;95349.31;;;0.20;76.74
69570;BME280;56781;42.292;23.146;2023-01-31T05:21:59;95368.31;;;0.39;76.10
69570;BME280;56781;42.292;23.146;2023-01-31T05:24:29;95361.03;;;0.29;75.94
69570;BME280;56781;42.292;23.146;2023-01-31T05:26:59;95370.38;;;0.20;76.40
69570;BME280;56781;42.292;23.146;2023-01-31T05:29:29;95413.88;;;0.39;76.84
69570;BME280;56781;42.292;23.146;2023-01-31T05:31:59;95375.91;;;0.35;76.15
69570;BME280;56781;42.292;23.146;2023-01-31T05:34:27;95360.88;;;0.19;76.78
69570;BME280;56781;42.292;23.146;2023-01-31T05:36:59;95370.06;;;0.16;77.84
69570;BME280;56781;42.292;23.146;2023-01-31T05:39:27;95403.31;;;0.22;78.46
69570;BME280;56781;42.292;23.146;2023-01-31T05:41:54;95405.63;;;0.19;79.74
69570;BME280;56781;42.292;23.146;2023-01-31T05:44:23;95391.25;;;0.10;79.50
69570;BME280;56781;42.292;23.146;2023-01-31T05:46:50;95406.19;;;0.21;80.28
69570;BME280;56781;42.292;23.146;2023-01-31T05:49:17;95387.97;;;0.03;79.25
69570;BME280;56781;42.292;23.146;2023-01-31T05:51:44;95374.91;;;0.08;79.43
69570;BME280;56781;42.292;23.146;2023-01-31T05:54:11;95381.13;;;0.02;78.09
69570;BME280;56781;42.292;23.146;2023-01-31T05:56:38;95375.72;;;0.25;75.90
69570;BME280;56781;42.292;23.146;2023-01-31T05:59:06;95369.69;;;0.41;75.92
69570;BME280;56781;42.292;23.146;2023-01-31T06:01:33;95373.75;;;0.49;75.82
69570;BME280;56781;42.292;23.146;2023-01-31T06:04:00;95367.28;;;0.40;74.37
69570;BME280;56781;42.292;23.146;2023-01-31T06:06:27;95350.59;;;0.34;75.16
69570;BME280;56781;42.292;23.146;2023-01-31T06:08:54;95370.84;;;0.51;74.95
69570;BME280;56781;42.292;23.146;2023-01-31T06:11:21;95358.81;;;0.55;74.71
69570;BME280;56781;42.292;23.146;2023-01-31T06:13:51;95401.19;;;0.70;74.80
69570;BME280;56781;42.292;23.146;2023-01-31T06:16:18;95387.72;;;0.50;76.86
69570;BME280;56781;42.292;23.146;2023-01-31T06:18:45;95361.81;;;0.13;78.82
69570;BME280;56781;42.292;23.146;2023-01-31T06:21:12;95399.81;;;0.51;78.50
69570;BME280;56781;42.292;23.146;2023-01-31T06:23:39;95400.88;;;0.50;76.17
69570;BME280;56781;42.292;23.146;2023-01-31T06:26:07;95370.16;;;0.38;76.88
69570;BME280;56781;42.292;23.146;2023-01-31T06:28:35;95402.84;;;0.59;76.31
69570;BME280;56781;42.292;23.146;2023-01-31T06:31:07;95379.25;;;0.48;74.36
69570;BME280;56781;42.292;23.146;2023-01-31T06:33:35;95363.50;;;0.70;71.56
69570;BME280;56781;42.292;23.146;2023-01-31T06:36:12;95365.03;;;0.82;71.43
69570;BME280;56781;42.292;23.146;2023-01-31T06:38:42;95391.81;;;0.96;72.63
69570;BME280;56781;42.292;23.146;2023-01-31T06:41:09;95349.81;;;0.89;73.20
69570;BME280;56781;42.292;23.146;2023-01-31T06:43:36;95377.44;;;1.04;73.99
69570;BME280;56781;42.292;23.146;2023-01-31T06:46:04;95379.31;;;1.08;72.47
69570;BME280;56781;42.292;23.146;2023-01-31T06:48:31;95377.88;;;1.18;70.99
69570;BME280;56781;42.292;23.146;2023-01-31T06:50:58;95346.59;;;1.04;72.78
69570;BME280;56781;42.292;23.146;2023-01-31T06:53:25;95349.47;;;1.03;73.90
69570;BME280;56781;42.292;23.146;2023-01-31T06:55:52;95370.56;;;1.03;73.19
69570;BME280;56781;42.292;23.146;2023-01-31T06:58:20;95366.72;;;1.10;74.27
69570;BME280;56781;42.292;23.146;2023-01-31T07:00:47;95367.84;;;0.98;75.16
69570;BME280;56781;42.292;23.146;2023-01-31T07:03:15;95364.81;;;1.06;73.30
69570;BME280;56781;42.292;23.146;2023-01-31T07:05:44;95368.06;;;1.13;72.64
69570;BME280;56781;42.292;23.146;2023-01-31T07:08:11;95398.28;;;1.44;73.94
69570;BME280;56781;42.292;23.146;2023-01-31T07:10:40;95400.28;;;1.59;74.45
69570;BME280;56781;42.292;23.146;2023-01-31T07:13:07;95370.59;;;1.47;75.03
69570;BME280;56781;42.292;23.146;2023-01-31T07:15:34;95382.06;;;1.80;72.19
69570;BME280;56781;42.292;23.146;2023-01-31T07:18:01;95356.41;;;1.75;72.01
69570;BME280;56781;42.292;23.146;2023-01-31T07:20:28;95392.00;;;1.72;73.99
69570;BME280;56781;42.292;23.146;2023-01-31T07:22:56;95356.78;;;1.40;74.16
69570;BME280;56781;42.292;23.146;2023-01-31T07:25:26;95377.22;;;1.71;73.44
69570;BME280;56781;42.292;23.146;2023-01-31T07:27:53;95362.84;;;1.62;71.49
69570;BME280;56781;42.292;23.146;2023-01-31T07:30:21;95373.34;;;1.57;72.32
69570;BME280;56781;42.292;23.146;2023-01-31T07:32:48;95363.28;;;1.32;75.45
69570;BME280;56781;42.292;23.146;2023-01-31T07:35:15;95355.09;;;1.28;76.03
69570;BME280;56781;42.292;23.146;2023-01-31T07:37:43;95390.94;;;1.29;75.55
69570;BME280;56781;42.292;23.146;2023-01-31T07:40:13;95365.19;;;1.15;75.08
69570;BME280;56781;42.292;23.146;2023-01-31T07:42:41;95385.13;;;1.27;74.06
69570;BME280;56781;42.292;23.146;2023-01-31T07:45:10;95381.59;;;1.00;75.42
69570;BME280;56781;42.292;23.146;2023-01-31T07:47:58;95395.16;;;1.08;75.43
69570;BME280;56781;42.292;23.146;2023-01-31T07:50:25;95393.06;;;1.10;75.53
69570;BME280;56781;42.292;23.146;2023-01-31T07:52:53;95349.44;;;0.81;76.07
69570;BME280;56781;42.292;23.146;2023-01-31T07:55:22;95361.47;;;0.94;76.32
69570;BME280;56781;42.292;23.146;2023-01-31T07:57:50;95391.22;;;1.11;76.98
69570;BME280;56781;42.292;23.146;2023-01-31T08:00:17;95385.53;;;1.19;76.34
69570;BME280;56781;42.292;23.146;2023-01-31T08:03:03;95381.38;;;1.23;76.03
69570;BME280;56781;42.292;23.146;2023-01-31T08:05:48;95414.13;;;1.27;77.34
69570;BME280;56781;42.292;23.146;2023-01-31T08:08:16;95309.06;;;0.97;76.53
69570;BME280;56781;42.292;23.146;2023-01-31T08:10:43;95385.16;;;1.49;76.90
69570;BME280;56781;42.292;23.146;2023-01-31T08:13:12;95402.91;;;1.37;75.80
69570;BME280;56781;42.292;23.146;2023-01-31T08:15:40;95384.59;;;1.25;77.93
69570;BME280;56781;42.292;23.146;2023-01-31T08:18:07;95373.09;;;1.15;77.47
69570;BME280;56781;42.292;23.146;2023-01-31T08:20:34;95386.03;;;1.16;77.12
69570;BME280;56781;42.292;23.146;2023-01-31T08:23:03;95407.75;;;1.23;76.38
69570;BME280;56781;42.292;23.146;2023-01-31T08:25:30;95396.06;;;1.36;74.67
69570;BME280;56781;42.292;23.146;2023-01-31T08:27:58;95419.66;;;1.48;76.40
69570;BME280;56781;42.292;23.146;2023-01-31T08:30:27;95410.97;;;1.47;76.86
69570;BME280;56781;42.292;23.146;2023-01-31T08:32:55;95387.38;;;1.41;78.18
69570;BME280;56781;42.292;23.146;2023-01-31T08:35:24;95412.00;;;1.68;77.91
69570;BME280;56781;42.292;23.146;2023-01-31T08:37:52;95386.44;;;1.47;78.70
69570;BME280;56781;42.292;23.146;2023-01-31T08:40:32;95366.06;;;1.20;78.95
69570;BME280;56781;42.292;23.146;2023-01-31T08:42:59;95384.25;;;1.44;78.30
69570;BME280;56781;42.292;23.146;2023-01-31T08:45:28;95413.91;;;1.51;78.64
69570;BME280;56781;42.292;23.146;2023-01-31T08:47:57;95423.81;;;1.44;79.27
69570;BME280;56781;42.292;23.146;2023-01-31T08:50:28;95435.06;;;1.56;80.66
69570;BME280;56781;42.292;23.146;2023-01-31T08:53:03;95404.41;;;1.50;81.63
69570;BME280;56781;42.292;23.146;2023-01-31T08:55:33;95397.22;;;1.67;79.39
69570;BME280;56781;42.292;23.146;2023-01-31T08:58:00;95425.50;;;1.94;79.27
69570;BME280;56781;42.292;23.146;2023-01-31T09:00:28;95422.84;;;1.94;78.86
69570;BME280;56781;42.292;23.146;2023-01-31T09:02:57;95379.47;;;1.63;80.71
69570;BME280;56781;42.292;23.146;2023-01-31T09:05:26;95381.63;;;1.88;78.47
69570;BME280;56781;42.292;23.146;2023-01-31T09:07:54;95397.53;;;2.25;78.29
69570;BME280;56781;42.292;23.146;2023-01-31T09:10:22;95394.75;;;2.37;76.88
69570;BME280;56781;42.292;23.146;2023-01-31T09:12:50;95420.31;;;2.58;77.38
69570;BME280;56781;42.292;23.146;2023-01-31T09:15:17;95406.59;;;2.61;76.54
69570;BME280;56781;42.292;23.146;2023-01-31T09:17:45;95403.03;;;2.18;76.47
69570;BME280;56781;42.292;23.146;2023-01-31T09:20:12;95381.22;;;2.01;78.04
69570;BME280;56781;42.292;23.146;2023-01-31T09:22:39;95422.97;;;2.31;78.89
69570;BME280;56781;42.292;23.146;2023-01-31T09:25:07;95410.75;;;2.25;79.32
69570;BME280;56781;42.292;23.146;2023-01-31T09:27:36;95400.84;;;2.37;79.66
69570;BME280;56781;42.292;23.146;2023-01-31T09:30:05;95390.66;;;2.51;75.99
69570;BME280;56781;42.292;23.146;2023-01-31T09:32:33;95421.84;;;2.86;75.79
69570;BME280;56781;42.292;23.146;2023-01-31T09:35:00;95373.00;;;2.94;72.60
69570;BME280;56781;42.292;23.146;2023-01-31T09:37:30;95383.50;;;3.26;73.05
69570;BME280;56781;42.292;23.146;2023-01-31T09:39:58;95407.69;;;3.03;72.38
69570;BME280;56781;42.292;23.146;2023-01-31T09:42:29;95402.63;;;2.96;71.93
69570;BME280;56781;42.292;23.146;2023-01-31T09:45:01;95402.50;;;2.49;71.61
69570;BME280;56781;42.292;23.146;2023-01-31T09:47:42;95380.31;;;2.44;72.33
69570;BME280;56781;42.292;23.146;2023-01-31T09:50:25;95352.22;;;2.71;71.09
69570;BME280;56781;42.292;23.146;2023-01-31T09:52:53;95370.91;;;2.59;72.50
69570;BME280;56781;42.292;23.146;2023-01-31T10:00:47;95379.91;;;3.00;71.34
69570;BME280;56781;42.292;23.146;2023-01-31T10:03:39;95349.75;;;2.96;71.29
69570;BME280;56781;42.292;23.146;2023-01-31T10:09:03;95332.06;;;3.02;71.18
69570;BME280;56781;42.292;23.146;2023-01-31T10:11:53;95338.16;;;2.65;69.89
69570;BME280;56781;42.292;23.146;2023-01-31T10:14:35;95333.53;;;2.45;71.85
69570;BME280;56781;42.292;23.146;2023-01-31T10:17:25;95349.53;;;2.65;71.56
69570;BME280;56781;42.292;23.146;2023-01-31T10:20:17;95346.56;;;2.57;71.93
69570;BME280;56781;42.292;23.146;2023-01-31T10:22:51;95347.78;;;2.44;71.09
69570;BME280;56781;42.292;23.146;2023-01-31T10:28:19;95319.75;;;2.38;72.51
69570;BME280;56781;42.292;23.146;2023-01-31T10:31:16;95314.13;;;2.29;71.16
69570;BME280;56781;42.292;23.146;2023-01-31T10:36:24;95338.97;;;2.33;71.23
69570;BME280;56781;42.292;23.146;2023-01-31T10:47:33;95308.88;;;2.02;72.35
69570;BME280;56781;42.292;23.146;2023-01-31T10:50:12;95333.63;;;2.23;74.13
69570;BME280;56781;42.292;23.146;2023-01-31T10:55:46;95319.28;;;2.14;73.26
69570;BME280;56781;42.292;23.146;2023-01-31T10:58:20;95312.25;;;2.25;73.87
69570;BME280;56781;42.292;23.146;2023-01-31T11:00:51;95299.59;;;2.27;74.29
69570;BME280;56781;42.292;23.146;2023-01-31T11:03:18;95302.66;;;2.13;73.20
69570;BME280;56781;42.292;23.146;2023-01-31T11:05:55;95329.09;;;2.18;74.45
69570;BME280;56781;42.292;23.146;2023-01-31T11:08:39;95294.06;;;1.96;74.89
69570;BME280;56781;42.292;23.146;2023-01-31T11:11:10;95302.59;;;2.08;75.21
69570;BME280;56781;42.292;23.146;2023-01-31T11:13:38;95303.75;;;2.22;75.94
69570;BME280;56781;42.292;23.146;2023-01-31T11:16:08;95327.56;;;2.28;73.34
69570;BME280;56781;42.292;23.146;2023-01-31T11:18:46;95313.28;;;2.24;74.46
69570;BME280;56781;42.292;23.146;2023-01-31T11:21:24;95306.97;;;2.25;74.62
69570;BME280;56781;42.292;23.146;2023-01-31T11:24:04;95292.28;;;2.39;74.61
69570;BME280;56781;42.292;23.146;2023-01-31T11:26:39;95330.50;;;2.63;73.48
69570;BME280;56781;42.292;23.146;2023-01-31T11:29:16;95315.06;;;2.45;73.17
69570;BME280;56781;42.292;23.146;2023-01-31T11:31:46;95308.63;;;2.36;73.42
69570;BME280;56781;42.292;23.146;2023-01-31T11:34:27;95339.38;;;2.52;75.15
69570;BME280;56781;42.292;23.146;2023-01-31T11:37:15;95324.00;;;2.44;73.95
69570;BME280;56781;42.292;23.146;2023-01-31T11:39:57;95314.97;;;2.35;74.35
69570;BME280;56781;42.292;23.146;2023-01-31T11:42:25;95306.88;;;2.14;72.00
69570;BME280;56781;42.292;23.146;2023-01-31T11:45:09;95329.16;;;2.24;73.44
69570;BME280;56781;42.292;23.146;2023-01-31T11:47:45;95314.78;;;2.09;74.04
69570;BME280;56781;42.292;23.146;2023-01-31T11:53:25;95341.47;;;2.13;76.82
69570;BME280;56781;42.292;23.146;2023-01-31T11:55:57;95317.44;;;1.87;77.20
69570;BME280;56781;42.292;23.146;2023-01-31T11:58:35;95333.59;;;1.91;79.05
69570;BME280;56781;42.292;23.146;2023-01-31T12:01:18;95315.97;;;1.69;78.52
69570;BME280;56781;42.292;23.146;2023-01-31T12:03:57;95305.31;;;1.86;79.09
69570;BME280;56781;42.292;23.146;2023-01-31T12:06:37;95330.28;;;2.06;78.94
69570;BME280;56781;42.292;23.146;2023-01-31T12:09:20;95338.09;;;2.22;78.13
69570;BME280;56781;42.292;23.146;2023-01-31T12:11:54;95330.03;;;2.34;77.80
69570;BME280;56781;42.292;23.146;2023-01-31T12:14:23;95305.47;;;2.34;76.88
69570;BME280;56781;42.292;23.146;2023-01-31T12:17:01;95320.84;;;2.42;78.51
69570;BME280;56781;42.292;23.146;2023-01-31T12:22:44;95323.16;;;2.76;77.96
69570;BME280;56781;42.292;23.146;2023-01-31T12:28:16;95310.00;;;2.81;76.39
69570;BME280;56781;42.292;23.146;2023-01-31T12:31:11;95288.16;;;2.53;76.59
69570;BME280;56781;42.292;23.146;2023-01-31T12:42:24;95305.50;;;2.39;78.79
69570;BME280;56781;42.292;23.146;2023-01-31T12:48:30;95300.13;;;2.29;82.05
69570;BME280;56781;42.292;23.146;2023-01-31T12:53:57;95315.75;;;2.03;84.91
69570;BME280;56781;42.292;23.146;2023-01-31T13:02:20;95316.97;;;2.22;83.87
69570;BME280;56781;42.292;23.146;2023-01-31T13:07:40;95312.25;;;2.25;82.48
69570;BME280;56781;42.292;23.146;2023-01-31T13:10:35;95261.69;;;1.78;80.30
69570;BME280;56781;42.292;23.146;2023-01-31T13:13:11;95324.59;;;2.19;79.39
69570;BME280;56781;42.292;23.146;2023-01-31T13:15:53;95307.56;;;2.32;77.13
69570;BME280;56781;42.292;23.146;2023-01-31T13:18:21;95292.59;;;2.10;76.20
69570;BME280;56781;42.292;23.146;2023-01-31T13:21:02;95314.38;;;2.28;76.15
69570;BME280;56781;42.292;23.146;2023-01-31T13:23:42;95292.41;;;2.22;74.99
69570;BME280;56781;42.292;23.146;2023-01-31T13:26:12;95295.28;;;2.15;75.35
69570;BME280;56781;42.292;23.146;2023-01-31T13:29:05;95293.72;;;2.19;75.95
69570;BME280;56781;42.292;23.146;2023-01-31T13:31:39;95298.25;;;2.24;75.48
69570;BME280;56781;42.292;23.146;2023-01-31T13:34:22;95292.75;;;1.98;75.12
69570;BME280;56781;42.292;23.146;2023-01-31T13:36:53;95298.09;;;2.04;75.56
69570;BME280;56781;42.292;23.146;2023-01-31T13:39:53;95303.44;;;2.14;75.79
69570;BME280;56781;42.292;23.146;2023-01-31T13:42:22;95336.28;;;2.23;74.51
69570;BME280;56781;42.292;23.146;2023-01-31T13:44:50;95286.66;;;1.98;74.93
69570;BME280;56781;42.292;23.146;2023-01-31T13:47:25;95312.38;;;2.08;75.16
69570;BME280;56781;42.292;23.146;2023-01-31T13:50:31;95322.72;;;2.14;74.64
69570;BME280;56781;42.292;23.146;2023-01-31T13:53:01;95314.78;;;2.09;74.17
69570;BME280;56781;42.292;23.146;2023-01-31T13:55:38;95334.47;;;2.29;73.19
69570;BME280;56781;42.292;23.146;2023-01-31T14:00:43;95320.06;;;2.09;73.39
69570;BME280;56781;42.292;23.146;2023-01-31T14:03:13;95321.25;;;1.96;72.15
69570;BME280;56781;42.292;23.146;2023-01-31T14:09:19;95350.13;;;2.08;72.74
69570;BME280;56781;42.292;23.146;2023-01-31T14:13:46;95361.41;;;1.98;71.46
69570;BME280;56781;42.292;23.146;2023-01-31T14:16:36;95356.34;;;1.97;71.61
69570;BME280;56781;42.292;23.146;2023-01-31T14:30:07;95356.34;;;1.97;72.42
69570;BME280;56781;42.292;23.146;2023-01-31T14:33:00;95366.06;;;1.91;72.47
69570;BME280;56781;42.292;23.146;2023-01-31T14:35:57;95378.25;;;1.97;72.76
69570;BME280;56781;42.292;23.146;2023-01-31T14:41:46;95365.50;;;1.89;73.05
69570;BME280;56781;42.292;23.146;2023-01-31T14:44:42;95375.13;;;2.00;72.05
69570;BME280;56781;42.292;23.146;2023-01-31T14:50:42;95382.81;;;2.02;72.12
69570;BME280;56781;42.292;23.146;2023-01-31T14:58:44;95361.06;;;1.68;72.84
69570;BME280;56781;42.292;23.146;2023-01-31T15:01:12;95349.59;;;1.57;71.58
69570;BME280;56781;42.292;23.146;2023-01-31T15:03:53;95362.34;;;1.65;72.52
69570;BME280;56781;42.292;23.146;2023-01-31T15:06:25;95388.31;;;1.73;72.49
69570;BME280;56781;42.292;23.146;2023-01-31T15:11:53;95384.22;;;1.61;72.39
69570;BME280;56781;42.292;23.146;2023-01-31T15:14:41;95384.94;;;1.56;72.20
69570;BME280;56781;42.292;23.146;2023-01-31T15:17:23;95423.78;;;1.83;72.30
69570;BME280;56781;42.292;23.146;2023-01-31T15:20:17;95388.44;;;1.62;72.58
69570;BME280;56781;42.292;23.146;2023-01-31T15:22:47;95374.91;;;1.53;71.26
69570;BME280;56781;42.292;23.146;2023-01-31T15:25:25;95400.34;;;1.64;71.21
69570;BME280;56781;42.292;23.146;2023-01-31T15:27:56;95412.53;;;1.70;71.82
69570;BME280;56781;42.292;23.146;2023-01-31T15:30:25;95429.13;;;1.66;72.57